createdAt,value
2023-03-02T00:02:16.134Z,1.15
2023-03-02T00:04:53.560Z,1.13
2023-03-02T00:07:32.883Z,1.17
2023-03-02T00:09:59.682Z,1.13
2023-03-02T00:12:32.469Z,0.90
2023-03-02T00:14:59.174Z,0.75
2023-03-02T00:17:28.989Z,1.45
2023-03-02T00:20:10.428Z,1.52
2023-03-02T00:22:44.204Z,1.30
2023-03-02T00:25:12.526Z,1.63
2023-03-02T00:27:39.249Z,1.52
2023-03-02T00:30:07.000Z,1.80
2023-03-02T00:32:34.510Z,1.48
2023-03-02T00:35:01.386Z,1.70
2023-03-02T00:37:27.921Z,1.42
2023-03-02T00:39:55.014Z,1.17
2023-03-02T00:42:22.276Z,1.98
2023-03-02T00:44:48.983Z,1.15
2023-03-02T00:47:16.233Z,1.35
2023-03-02T00:49:49.014Z,1.58
2023-03-02T00:52:17.010Z,1.15
2023-03-02T00:54:43.666Z,1.77
2023-03-02T00:57:10.439Z,1.45
2023-03-02T00:59:38.809Z,2.03
2023-03-02T01:02:05.904Z,2.58
2023-03-02T01:04:38.503Z,2.38
2023-03-02T01:07:15.008Z,6.03
2023-03-02T01:10:34.242Z,6.60
2023-03-02T01:13:01.005Z,8.10
2023-03-02T01:15:28.013Z,7.75
2023-03-02T01:17:54.620Z,4.05
2023-03-02T01:20:21.208Z,4.45
2023-03-02T01:22:48.041Z,3.28
2023-03-02T01:25:14.634Z,0.50
2023-03-02T01:27:41.316Z,0.57
2023-03-02T01:30:08.693Z,0.50
2023-03-02T01:32:35.411Z,0.55
2023-03-02T01:35:02.054Z,0.43
2023-03-02T01:37:28.658Z,0.63
2023-03-02T01:39:55.783Z,0.55
2023-03-02T01:42:22.425Z,0.45
2023-03-02T01:44:57.438Z,0.75
2023-03-02T01:47:34.171Z,0.50
2023-03-02T01:50:18.849Z,0.40
2023-03-02T01:52:46.198Z,0.40
2023-03-02T01:55:17.131Z,0.40
2023-03-02T01:57:47.992Z,0.40
2023-03-02T02:00:20.598Z,0.73
2023-03-02T02:06:42.993Z,0.40
2023-03-02T02:09:15.453Z,0.30
2023-03-02T02:11:46.093Z,0.30
2023-03-02T02:14:13.557Z,0.40
2023-03-02T02:16:41.133Z,0.95
2023-03-02T02:19:24.880Z,0.40
2023-03-02T02:21:51.597Z,0.40
2023-03-02T02:24:31.939Z,0.40
2023-03-02T02:26:59.109Z,0.40
2023-03-02T02:29:34.491Z,0.50
2023-03-02T02:32:11.491Z,0.40
2023-03-02T02:34:58.957Z,0.73
2023-03-02T02:37:38.512Z,0.30
2023-03-02T02:40:09.859Z,0.40
2023-03-02T02:42:41.926Z,0.30
2023-03-02T02:45:18.261Z,0.55
2023-03-02T02:47:45.015Z,0.95
2023-03-02T02:50:38.141Z,0.40
2023-03-02T02:53:32.916Z,0.98
2023-03-02T02:56:00.182Z,0.38
2023-03-02T02:58:43.276Z,0.60
2023-03-02T03:01:15.034Z,0.68
2023-03-02T03:03:49.967Z,0.55
2023-03-02T03:06:25.892Z,0.95
2023-03-02T03:08:56.824Z,0.40
2023-03-02T03:11:50.961Z,1.35
2023-03-02T03:14:25.128Z,0.68
2023-03-02T03:16:51.860Z,1.00
2023-03-02T03:19:23.443Z,0.73
2023-03-02T03:21:52.731Z,0.40
2023-03-02T03:24:20.139Z,1.20
2023-03-02T03:26:47.560Z,1.17
2023-03-02T03:29:16.778Z,0.40
2023-03-02T03:31:43.585Z,0.40
2023-03-02T03:34:10.350Z,0.75
2023-03-02T03:36:37.956Z,0.30
2023-03-02T03:39:06.190Z,0.40
2023-03-02T03:41:33.006Z,0.22
2023-03-02T03:43:59.641Z,0.80
2023-03-02T03:46:26.711Z,0.80
2023-03-02T03:48:53.385Z,1.20
2023-03-02T03:51:20.221Z,0.40
2023-03-02T03:53:46.885Z,0.30
2023-03-02T03:56:13.422Z,0.38
2023-03-02T03:58:40.171Z,0.40
2023-03-02T04:01:07.016Z,0.40
2023-03-02T04:03:33.839Z,0.40
2023-03-02T04:06:00.382Z,0.40
2023-03-02T04:08:27.020Z,0.50
2023-03-02T04:10:53.641Z,0.60
2023-03-02T04:13:20.268Z,0.40
2023-03-02T04:15:47.312Z,0.82
2023-03-02T04:18:13.999Z,0.20
2023-03-02T04:20:40.615Z,0.40
2023-03-02T04:23:07.260Z,0.30
2023-03-02T04:25:33.802Z,0.50
2023-03-02T04:28:00.435Z,0.15
2023-03-02T04:30:27.647Z,0.40
2023-03-02T04:32:54.805Z,0.22
2023-03-02T04:35:21.498Z,0.50
2023-03-02T04:37:48.212Z,0.50
2023-03-02T04:40:17.614Z,0.55
2023-03-02T04:42:44.824Z,0.50
2023-03-02T04:45:13.005Z,0.60
2023-03-02T04:47:39.934Z,0.77
2023-03-02T04:50:07.664Z,0.70
2023-03-02T04:52:34.256Z,0.75
2023-03-02T04:55:00.860Z,1.02
2023-03-02T04:57:27.491Z,1.75
2023-03-02T04:59:54.034Z,1.75
2023-03-02T05:02:21.157Z,3.28
2023-03-02T05:04:47.846Z,5.35
2023-03-02T05:07:14.529Z,1.40
2023-03-02T05:09:41.130Z,1.15
2023-03-02T05:12:07.941Z,1.67
2023-03-02T05:14:34.618Z,2.00
2023-03-02T05:17:01.178Z,1.98
2023-03-02T05:19:28.318Z,1.45
2023-03-02T05:21:56.477Z,1.65
2023-03-02T05:24:23.062Z,0.65
2023-03-02T05:26:49.609Z,1.15
2023-03-02T05:29:16.244Z,1.45
2023-03-02T05:31:44.474Z,1.05
2023-03-02T05:34:13.375Z,1.55
2023-03-02T05:36:40.322Z,1.65
2023-03-02T05:39:08.627Z,2.13
2023-03-02T05:41:36.846Z,2.45
2023-03-02T05:44:04.867Z,2.53
2023-03-02T05:46:31.943Z,2.65
2023-03-02T05:48:58.751Z,3.97
2023-03-02T05:51:25.337Z,3.00
2023-03-02T05:53:52.011Z,1.52
2023-03-02T05:56:20.786Z,2.38
2023-03-02T05:58:47.393Z,2.72
2023-03-02T06:01:15.545Z,2.85
2023-03-02T06:03:43.458Z,2.95
2023-03-02T06:06:14.266Z,3.88
2023-03-02T06:08:42.136Z,2.90
2023-03-02T06:11:09.928Z,2.97
2023-03-02T06:13:37.304Z,2.80
2023-03-02T06:16:04.795Z,2.55
2023-03-02T06:18:31.536Z,2.45
2023-03-02T06:20:58.127Z,2.65
2023-03-02T06:23:24.911Z,1.92
2023-03-02T06:25:51.777Z,1.98
2023-03-02T06:28:20.088Z,1.35
2023-03-02T06:30:49.125Z,1.67
2023-03-02T06:33:18.246Z,1.42
2023-03-02T06:35:45.623Z,1.98
2023-03-02T06:38:12.352Z,2.53
2023-03-02T06:40:39.073Z,2.60
2023-03-02T06:43:05.808Z,2.00
2023-03-02T06:45:34.172Z,3.30
2023-03-02T06:48:01.691Z,2.45
2023-03-02T06:50:28.653Z,2.03
2023-03-02T06:52:55.453Z,2.83
2023-03-02T06:55:22.214Z,2.28
2023-03-02T06:57:49.027Z,2.63
2023-03-02T07:00:17.652Z,3.22
2023-03-02T07:02:45.101Z,2.97
2023-03-02T07:05:12.923Z,1.00
2023-03-02T07:07:39.520Z,3.90
2023-03-02T07:10:07.730Z,3.70
2023-03-02T07:12:34.476Z,3.15
2023-03-02T07:15:01.332Z,1.70
2023-03-02T07:17:28.596Z,4.78
2023-03-02T07:19:55.229Z,3.30
2023-03-02T07:22:21.976Z,3.20
2023-03-02T07:24:48.745Z,3.05
2023-03-02T07:27:15.457Z,3.33
2023-03-02T07:29:42.132Z,1.67
2023-03-02T07:32:10.818Z,3.05
2023-03-02T07:34:39.000Z,2.25
2023-03-02T07:37:05.679Z,1.95
2023-03-02T07:39:32.432Z,2.38
2023-03-02T07:42:00.261Z,1.55
2023-03-02T07:44:27.590Z,2.22
2023-03-02T07:46:54.263Z,1.60
2023-03-02T07:49:21.031Z,1.50
2023-03-02T07:51:47.723Z,1.70
2023-03-02T07:54:14.360Z,2.60
2023-03-02T07:56:41.156Z,1.50
2023-03-02T07:59:07.812Z,0.80
2023-03-02T08:01:35.007Z,1.58
2023-03-02T08:04:02.009Z,2.03
2023-03-02T08:06:28.659Z,3.03
2023-03-02T08:08:55.773Z,2.83
2023-03-02T08:11:22.665Z,1.83
2023-03-02T08:13:49.459Z,1.23
2023-03-02T08:16:16.613Z,2.55
2023-03-02T08:18:43.689Z,3.58
2023-03-02T08:21:16.580Z,3.40
2023-03-02T08:23:43.709Z,3.05
2023-03-02T08:26:13.519Z,3.35
2023-03-02T08:28:42.697Z,2.30
2023-03-02T08:31:10.319Z,2.45
2023-03-02T08:33:37.059Z,2.08
2023-03-02T08:36:09.525Z,2.95
2023-03-02T08:38:36.684Z,2.53
2023-03-02T08:41:08.123Z,3.55
2023-03-02T08:43:35.444Z,2.53
2023-03-02T08:46:02.545Z,2.55
2023-03-02T08:48:30.091Z,2.58
2023-03-02T08:50:59.158Z,3.65
2023-03-02T08:53:26.951Z,7.30
2023-03-02T08:55:53.833Z,4.50
2023-03-02T08:58:20.638Z,5.57
2023-03-02T09:00:47.460Z,4.93
2023-03-02T09:03:14.318Z,3.67
2023-03-02T09:05:41.030Z,4.15
2023-03-02T09:08:08.431Z,4.10
2023-03-02T09:10:35.657Z,5.50
2023-03-02T09:13:02.318Z,5.22
2023-03-02T09:15:29.281Z,4.68
2023-03-02T09:17:55.881Z,3.72
2023-03-02T09:20:22.483Z,5.88
2023-03-02T09:22:50.959Z,6.45
2023-03-02T09:25:18.882Z,5.15
2023-03-02T09:27:46.909Z,4.95
2023-03-02T09:30:14.928Z,5.97
2023-03-02T09:32:41.813Z,3.83
2023-03-02T09:35:08.971Z,4.47
2023-03-02T09:37:38.726Z,4.90
2023-03-02T09:40:15.707Z,3.63
2023-03-02T09:42:51.779Z,6.25
2023-03-02T09:45:49.015Z,2.58
2023-03-02T09:48:22.008Z,3.95
2023-03-02T09:51:24.986Z,3.38
2023-03-02T09:54:10.056Z,9.32
2023-03-02T09:56:42.919Z,3.38
2023-03-02T09:59:22.167Z,3.80
2023-03-02T10:02:37.306Z,4.28
2023-03-02T10:05:13.405Z,5.32
2023-03-02T10:07:40.312Z,3.25
2023-03-02T10:10:10.154Z,3.72
2023-03-02T10:12:54.265Z,2.67
2023-03-02T10:15:31.708Z,3.88
2023-03-02T10:18:12.273Z,3.75
2023-03-02T10:20:51.421Z,2.55
2023-03-02T10:23:30.042Z,3.60
2023-03-02T10:26:23.023Z,4.35
2023-03-02T10:29:04.553Z,5.28
2023-03-02T10:31:33.610Z,3.85
2023-03-02T10:34:01.235Z,6.25
2023-03-02T10:36:30.583Z,1.85
2023-03-02T10:39:00.435Z,1.90
2023-03-02T10:41:44.806Z,2.30
2023-03-02T10:44:22.330Z,3.05
2023-03-02T10:46:49.088Z,2.03
2023-03-02T10:49:36.149Z,3.00
2023-03-02T10:52:08.494Z,1.92
2023-03-02T10:54:36.470Z,2.05
2023-03-02T10:57:05.926Z,2.75
2023-03-02T10:59:43.642Z,1.75
2023-03-02T11:02:16.559Z,2.28
2023-03-02T11:04:43.531Z,1.80
2023-03-02T11:07:19.405Z,3.63
2023-03-02T11:09:58.086Z,2.70
2023-03-02T11:12:25.265Z,3.40
2023-03-02T11:15:04.467Z,3.15
2023-03-02T11:17:35.090Z,3.15
2023-03-02T11:20:04.031Z,3.65
2023-03-02T11:22:41.311Z,1.58
2023-03-02T11:25:18.936Z,1.83
2023-03-02T11:27:46.536Z,3.00
2023-03-02T11:30:16.172Z,1.08
2023-03-02T11:32:54.710Z,1.45
2023-03-02T11:35:40.280Z,2.20
2023-03-02T11:38:31.556Z,1.10
2023-03-02T11:41:03.852Z,1.67
2023-03-02T11:43:31.276Z,1.67
2023-03-02T11:46:10.815Z,1.92
2023-03-02T11:48:45.122Z,5.00
2023-03-02T11:51:19.495Z,2.97
2023-03-02T11:53:46.055Z,2.25
2023-03-02T11:56:12.803Z,2.00
2023-03-02T11:58:41.938Z,1.40
2023-03-02T12:01:17.756Z,1.67
2023-03-02T12:03:47.691Z,3.67
2023-03-02T12:06:14.201Z,3.28
2023-03-02T12:08:43.790Z,1.77
2023-03-02T12:11:19.531Z,2.58
2023-03-02T12:14:25.590Z,1.80
2023-03-02T12:16:52.350Z,3.83
2023-03-02T12:19:38.657Z,0.77
2023-03-02T12:22:10.745Z,2.20
2023-03-02T12:24:39.915Z,1.75
2023-03-02T12:27:06.459Z,0.90
2023-03-02T12:29:40.976Z,1.00
2023-03-02T12:32:19.841Z,2.15
2023-03-02T12:34:55.380Z,1.15
2023-03-02T12:37:26.518Z,0.80
2023-03-02T12:40:17.614Z,1.40
2023-03-02T12:43:08.810Z,3.05
2023-03-02T12:45:51.848Z,1.70
2023-03-02T12:48:56.763Z,1.98
2023-03-02T12:51:26.486Z,0.40
2023-03-02T12:54:07.745Z,0.70
2023-03-02T12:56:35.470Z,1.58
2023-03-02T12:59:02.179Z,1.63
2023-03-02T13:01:31.521Z,1.17
2023-03-02T13:03:59.043Z,1.40
2023-03-02T13:06:32.612Z,1.70
2023-03-02T13:09:01.057Z,1.63
2023-03-02T13:11:33.006Z,6.50
2023-03-02T13:14:01.349Z,6.18
2023-03-02T13:16:32.361Z,1.52
2023-03-02T13:19:18.434Z,0.75
2023-03-02T13:21:45.176Z,2.80
2023-03-02T13:24:33.529Z,2.25
2023-03-02T13:27:21.293Z,1.95
2023-03-02T13:29:48.410Z,1.10
2023-03-02T13:32:18.094Z,1.08
2023-03-02T13:34:55.458Z,1.08
2023-03-02T13:37:35.162Z,2.80
2023-03-02T13:40:05.013Z,1.35
2023-03-02T13:42:37.595Z,1.15
2023-03-02T13:45:30.182Z,3.92
2023-03-02T13:47:59.632Z,4.07
2023-03-02T13:50:30.131Z,5.28
2023-03-02T13:53:00.836Z,5.20
2023-03-02T13:55:27.788Z,4.13
2023-03-02T13:57:56.020Z,1.35
2023-03-02T14:00:33.679Z,1.67
2023-03-02T14:03:00.835Z,1.42
2023-03-02T14:05:33.551Z,1.30
2023-03-02T14:08:01.263Z,0.90
2023-03-02T14:10:27.970Z,1.70
2023-03-02T14:13:09.433Z,0.70
2023-03-02T14:15:46.356Z,2.25
2023-03-02T14:18:23.158Z,1.55
2023-03-02T14:20:49.819Z,1.08
2023-03-02T14:23:16.475Z,1.52
2023-03-02T14:25:43.296Z,4.47
2023-03-02T14:28:24.467Z,4.13
2023-03-02T14:30:56.949Z,3.58
2023-03-02T14:33:24.575Z,5.05
2023-03-02T14:35:54.147Z,4.93
2023-03-02T14:38:23.616Z,2.63
2023-03-02T14:40:50.660Z,3.45
2023-03-02T14:43:18.692Z,2.92
2023-03-02T14:45:45.790Z,6.75
2023-03-02T14:48:12.527Z,2.10
2023-03-02T14:50:42.356Z,4.88
2023-03-02T14:53:22.841Z,0.77
2023-03-02T14:55:49.481Z,2.47
2023-03-02T14:58:20.883Z,6.45
2023-03-02T15:00:48.579Z,4.80
2023-03-02T15:03:29.311Z,5.88
2023-03-02T15:06:01.329Z,4.80
2023-03-02T15:08:29.269Z,5.78
2023-03-02T15:10:55.916Z,4.78
2023-03-02T15:13:22.564Z,3.17
2023-03-02T15:15:50.219Z,4.30
2023-03-02T15:18:20.021Z,5.05
2023-03-02T15:20:47.872Z,3.45
2023-03-02T15:23:14.546Z,2.85
2023-03-02T15:25:41.340Z,2.50
2023-03-02T15:28:07.977Z,1.42
2023-03-02T15:30:34.593Z,2.20
2023-03-02T15:33:01.242Z,5.47
2023-03-02T15:35:29.327Z,1.75
2023-03-02T15:37:58.452Z,2.33
2023-03-02T15:40:25.839Z,5.30
2023-03-02T15:42:53.147Z,2.42
2023-03-02T15:45:20.016Z,3.78
2023-03-02T15:47:46.872Z,7.45
2023-03-02T15:50:13.709Z,4.05
2023-03-02T15:52:41.541Z,7.57
2023-03-02T15:55:08.576Z,4.55
2023-03-02T15:57:39.468Z,6.93
2023-03-02T16:00:07.020Z,5.03
2023-03-02T16:02:34.178Z,7.63
2023-03-02T16:05:00.830Z,4.82
2023-03-02T16:07:27.497Z,7.32
2023-03-02T16:09:54.180Z,4.25
2023-03-02T16:12:23.405Z,4.82
2023-03-02T16:14:50.148Z,6.30
2023-03-02T16:17:18.637Z,2.50
2023-03-02T16:19:45.492Z,4.85
2023-03-02T16:22:12.113Z,5.38
2023-03-02T16:24:40.814Z,5.20
2023-03-02T16:27:08.624Z,3.58
2023-03-02T16:29:35.284Z,4.50
2023-03-02T16:32:02.201Z,8.82
2023-03-02T16:34:28.995Z,1.40
2023-03-02T16:36:55.662Z,5.35
2023-03-02T16:39:22.269Z,6.40
2023-03-02T16:41:48.853Z,7.78
2023-03-02T16:44:16.341Z,6.15
2023-03-02T16:46:43.873Z,7.93
2023-03-02T16:49:12.253Z,5.20
2023-03-02T16:51:39.685Z,5.78
2023-03-02T16:54:06.789Z,9.98
2023-03-02T16:56:33.780Z,8.02
2023-03-02T16:59:00.715Z,11.98
2023-03-02T17:01:28.122Z,6.35
2023-03-02T17:03:55.171Z,11.95
2023-03-02T17:06:24.279Z,9.98
2023-03-02T17:08:51.506Z,8.45
2023-03-02T17:11:19.409Z,5.30
2023-03-02T17:13:46.803Z,4.63
2023-03-02T17:16:14.152Z,5.38
2023-03-02T17:18:41.150Z,4.93
2023-03-02T17:21:08.468Z,4.60
2023-03-02T17:23:37.125Z,5.88
2023-03-02T17:26:04.087Z,6.22
2023-03-02T17:28:31.327Z,1.42
2023-03-02T17:30:58.052Z,2.00
2023-03-02T17:33:24.798Z,3.40
2023-03-02T17:35:52.191Z,5.13
2023-03-02T17:38:19.062Z,4.93
2023-03-02T17:40:45.749Z,2.78
2023-03-02T17:43:12.823Z,1.50
2023-03-02T17:45:39.771Z,3.78
2023-03-02T17:48:06.998Z,3.15
2023-03-02T17:50:33.853Z,4.15
2023-03-02T17:53:00.525Z,5.75
2023-03-02T17:55:27.320Z,3.50
2023-03-02T17:57:54.076Z,4.72
2023-03-02T18:00:22.578Z,4.10
2023-03-02T18:02:50.101Z,4.78
2023-03-02T18:05:16.834Z,4.55
2023-03-02T18:07:43.445Z,4.07
2023-03-02T18:10:10.716Z,8.18
2023-03-02T18:12:37.432Z,6.18
2023-03-02T18:15:04.938Z,4.80
2023-03-02T18:17:31.623Z,8.75
2023-03-02T18:19:58.279Z,4.88
2023-03-02T18:22:25.132Z,5.40
2023-03-02T18:24:52.935Z,7.95
2023-03-02T18:27:20.265Z,5.57
2023-03-02T18:29:46.931Z,3.08
2023-03-02T18:32:14.243Z,4.18
2023-03-02T18:34:41.062Z,2.60
2023-03-02T18:37:08.230Z,3.60
2023-03-02T18:39:35.263Z,4.07
2023-03-02T18:42:01.811Z,4.43
2023-03-02T18:44:28.506Z,6.50
2023-03-02T18:46:56.071Z,5.63
2023-03-02T18:49:23.894Z,5.05
2023-03-02T18:51:50.876Z,3.63
2023-03-02T18:54:17.877Z,3.47
2023-03-02T18:56:44.751Z,2.42
2023-03-02T18:59:12.326Z,5.22
2023-03-02T19:01:39.038Z,3.67
2023-03-02T19:04:06.376Z,2.30
2023-03-02T19:06:33.511Z,4.50
2023-03-02T19:09:00.263Z,6.15
2023-03-02T19:11:27.034Z,3.85
2023-03-02T19:13:53.924Z,6.18
2023-03-02T19:16:20.951Z,3.28
2023-03-02T19:18:48.768Z,5.80
2023-03-02T19:21:15.681Z,4.22
2023-03-02T19:23:42.559Z,4.97
2023-03-02T19:26:09.866Z,5.95
2023-03-02T19:28:38.446Z,4.88
2023-03-02T19:31:08.997Z,4.80
2023-03-02T19:33:36.504Z,5.85
2023-03-02T19:36:03.990Z,2.80
2023-03-02T19:38:31.313Z,5.53
2023-03-02T19:41:00.098Z,6.15
2023-03-02T19:43:27.362Z,5.95
2023-03-02T19:45:54.150Z,6.78
2023-03-02T19:48:20.749Z,4.70
2023-03-02T19:50:47.562Z,2.70
2023-03-02T19:53:16.101Z,5.38
2023-03-02T19:55:43.401Z,6.32
2023-03-02T19:58:12.784Z,10.05
2023-03-02T20:00:39.413Z,6.55
2023-03-02T20:03:07.171Z,4.43
2023-03-02T20:05:34.129Z,7.00
2023-03-02T20:08:01.143Z,8.30
2023-03-02T20:10:40.294Z,6.93
2023-03-02T20:13:08.117Z,6.22
2023-03-02T20:15:40.131Z,6.05
2023-03-02T20:18:09.561Z,6.45
2023-03-02T20:20:36.607Z,8.10
2023-03-02T20:23:04.572Z,8.43
2023-03-02T20:25:31.541Z,5.43
2023-03-02T20:27:58.162Z,4.43
2023-03-02T20:30:32.716Z,6.43
2023-03-02T20:33:00.060Z,3.90
2023-03-02T20:35:29.612Z,4.90
2023-03-02T20:37:58.131Z,5.20
2023-03-02T20:40:26.003Z,2.90
2023-03-02T20:42:53.206Z,3.60
2023-03-02T20:45:20.534Z,4.88
2023-03-02T20:47:47.692Z,4.10
2023-03-02T20:50:17.770Z,2.28
2023-03-02T20:52:44.647Z,3.00
2023-03-02T20:55:11.960Z,1.98
2023-03-02T20:57:39.644Z,1.98
2023-03-02T21:00:08.507Z,2.10
2023-03-02T21:02:35.077Z,3.42
2023-03-02T21:05:01.798Z,1.67
2023-03-02T21:07:28.515Z,1.10
2023-03-02T21:09:55.153Z,2.17
2023-03-02T21:12:21.801Z,1.02
2023-03-02T21:14:48.634Z,3.40
2023-03-02T21:17:15.598Z,1.67
2023-03-02T21:19:42.174Z,2.17
2023-03-02T21:22:08.790Z,1.42
2023-03-02T21:24:35.377Z,1.85
2023-03-02T21:27:02.721Z,1.60
2023-03-02T21:29:29.790Z,0.80
2023-03-02T21:31:56.945Z,2.38
2023-03-02T21:34:23.688Z,0.80
2023-03-02T21:36:53.677Z,1.48
2023-03-02T21:39:23.754Z,1.10
2023-03-02T21:41:51.481Z,1.45
2023-03-02T21:44:18.612Z,2.28
2023-03-02T21:46:45.813Z,1.38
2023-03-02T21:49:17.998Z,0.80
2023-03-02T21:51:45.307Z,1.25
2023-03-02T21:54:12.008Z,0.93
2023-03-02T21:56:38.988Z,0.63
2023-03-02T21:59:05.648Z,1.63
2023-03-02T22:01:35.761Z,1.05
2023-03-02T22:04:02.331Z,1.30
2023-03-02T22:06:31.708Z,0.80
2023-03-02T22:08:58.975Z,1.15
2023-03-02T22:11:28.567Z,1.00
2023-03-02T22:13:58.488Z,1.52
2023-03-02T22:16:28.028Z,0.90
2023-03-02T22:18:59.519Z,1.48
2023-03-02T22:21:37.804Z,1.08
2023-03-02T22:24:13.395Z,1.83
2023-03-02T22:26:46.417Z,1.38
2023-03-02T22:29:17.260Z,0.98
2023-03-02T22:31:49.129Z,1.40
2023-03-02T22:34:20.551Z,1.35
2023-03-02T22:36:47.661Z,1.08
2023-03-02T22:39:27.079Z,0.90
2023-03-02T22:42:00.533Z,0.93
2023-03-02T22:44:27.283Z,0.70
2023-03-02T22:46:56.921Z,0.93
2023-03-02T22:49:23.566Z,0.88
2023-03-02T22:51:50.342Z,1.30
2023-03-02T22:54:23.125Z,0.70
2023-03-02T22:56:57.042Z,1.05
2023-03-02T22:59:24.676Z,1.20
2023-03-02T23:02:02.469Z,0.85
2023-03-02T23:04:36.989Z,1.63
2023-03-02T23:07:22.243Z,1.02
2023-03-02T23:09:49.238Z,0.63
2023-03-02T23:12:21.926Z,0.43
2023-03-02T23:14:51.978Z,1.08
2023-03-02T23:17:30.859Z,0.70
2023-03-02T23:19:57.671Z,1.00
2023-03-02T23:22:28.564Z,0.80
2023-03-02T23:24:56.270Z,0.65
2023-03-02T23:27:24.469Z,1.27
2023-03-02T23:29:53.271Z,0.90
2023-03-02T23:32:20.146Z,1.30
2023-03-02T23:34:47.080Z,1.25
2023-03-02T23:37:13.653Z,1.45
2023-03-02T23:39:40.315Z,1.27
2023-03-02T23:42:06.968Z,1.67
2023-03-02T23:44:33.473Z,1.50
2023-03-02T23:47:00.324Z,1.83
2023-03-02T23:49:27.394Z,1.33
2023-03-02T23:51:54.714Z,0.90
2023-03-02T23:54:21.383Z,1.73
2023-03-02T23:56:47.992Z,1.02
2023-03-02T23:59:14.662Z,1.30
